Time;durP1;ratioP1;P1;durP2;ratioP2;P2;SDS_P1;SDS_P2;PMS_P1;PMS_P2;Temp;Humidity;BMP_temperature;BMP_pressure;BME280_temperature;BME280_humidity;BME280_pressure;Samples;Min_cycle;Max_cycle;Signal;HPM_P1;HPM_P2
2022/11/12 00:01:59;;;;;;;145.00;74.37;;;6.20;99.90;;;;;;10447388;28;20624;-78
2022/11/12 00:07:00;;;;;;;150.20;74.97;;;6.30;99.90;;;;;;10454601;28;20028;-80
2022/11/12 00:12:00;;;;;;;132.10;68.50;;;6.30;99.90;;;;;;10448006;28;20062;-80
2022/11/12 00:17:01;;;;;;;122.43;64.53;;;6.30;99.90;;;;;;10452851;28;20116;-78
2022/11/12 00:22:01;;;;;;;139.17;70.60;;;6.30;99.90;;;;;;10445735;28;20040;-78
2022/11/12 00:27:02;;;;;;;133.30;67.97;;;6.30;99.90;;;;;;10449463;28;20039;-78
2022/11/12 00:32:03;;;;;;;131.27;66.50;;;6.20;99.90;;;;;;10450323;28;20384;-78
2022/11/12 00:37:04;;;;;;;124.87;62.80;;;6.20;99.90;;;;;;10454152;28;20020;-79
2022/11/12 00:42:05;;;;;;;142.97;69.90;;;6.20;99.90;;;;;;10453991;28;20122;-80
2022/11/12 00:47:05;;;;;;;139.50;70.83;;;6.10;99.90;;;;;;10448490;28;20049;-80
2022/11/12 00:52:06;;;;;;;136.20;69.57;;;6.10;99.90;;;;;;10455719;28;20025;-77
2022/11/12 00:57:06;;;;;;;138.67;70.63;;;6.20;99.90;;;;;;10486272;28;20032;-78
2022/11/12 01:02:07;;;;;;;136.97;68.07;;;6.30;99.90;;;;;;10500321;22;20061;-78
2022/11/12 01:07:07;;;;;;;135.23;67.97;;;6.30;99.90;;;;;;10484873;28;20032;-78
2022/11/12 01:12:08;;;;;;;128.63;62.63;;;6.40;99.90;;;;;;10483970;28;20090;-78
2022/11/12 01:17:08;;;;;;;121.43;64.07;;;6.40;99.90;;;;;;10484031;28;20040;-80
2022/11/12 01:22:10;;;;;;;119.23;59.73;;;6.40;99.90;;;;;;10485339;28;20081;-80
2022/11/12 01:27:10;;;;;;;125.13;60.17;;;6.50;99.90;;;;;;10485013;28;20033;-78
2022/11/12 01:32:11;;;;;;;110.73;57.90;;;6.50;99.90;;;;;;10481855;28;20530;-80
2022/11/12 01:37:11;;;;;;;115.70;59.27;;;6.50;99.90;;;;;;10484668;28;20086;-77
2022/11/12 01:42:12;;;;;;;111.87;58.77;;;6.50;99.90;;;;;;10484880;28;20371;-80
2022/11/12 01:47:20;;;;;;;109.03;55.47;;;6.50;99.90;;;;;;10483398;28;20529;-78
2022/11/12 01:52:36;;;;;;;101.30;52.90;;;6.50;99.90;;;;;;10479096;28;20017;-78
2022/11/12 01:57:41;;;;;;;106.50;53.92;;;6.50;99.90;;;;;;10475998;28;20033;-80
2022/11/12 02:02:46;;;;;;;106.47;53.08;;;6.50;99.90;;;;;;10483723;28;20865;-80
2022/11/12 02:07:48;;;;;;;108.13;55.93;;;6.50;99.90;;;;;;10484243;28;20039;-80
2022/11/12 02:18:10;;;;;;;101.37;51.87;;;6.40;99.90;;;;;;10481676;28;20758;-79
2022/11/12 02:23:11;;;;;;;95.17;50.40;;;6.40;99.90;;;;;;10482806;28;20112;-79
2022/11/12 02:28:11;;;;;;;109.27;54.10;;;6.40;99.90;;;;;;10482925;28;20037;-80
2022/11/12 02:33:12;;;;;;;112.23;53.27;;;6.30;99.90;;;;;;10482834;28;20036;-78
2022/11/12 02:38:12;;;;;;;106.07;51.73;;;6.30;99.90;;;;;;10482925;28;20062;-78
2022/11/12 02:43:13;;;;;;;111.07;55.40;;;6.30;99.90;;;;;;10469053;28;20086;-80
2022/11/12 02:48:14;;;;;;;111.30;54.23;;;6.30;99.90;;;;;;10482108;28;20503;-79
2022/11/12 02:53:14;;;;;;;95.13;50.90;;;6.30;99.90;;;;;;10483114;28;20575;-81
2022/11/12 02:58:15;;;;;;;105.80;53.03;;;6.30;99.90;;;;;;10482753;28;20094;-78
2022/11/12 03:03:15;;;;;;;107.47;50.43;;;6.30;99.90;;;;;;10470407;28;20144;-80
2022/11/12 03:08:16;;;;;;;108.73;53.67;;;6.30;99.90;;;;;;10482864;28;20037;-81
2022/11/12 03:13:17;;;;;;;95.47;50.60;;;6.30;99.90;;;;;;10480774;28;20040;-78
2022/11/12 03:18:17;;;;;;;95.57;50.17;;;6.20;99.90;;;;;;10482755;28;20028;-78
2022/11/12 03:23:18;;;;;;;106.67;51.10;;;6.10;99.90;;;;;;10481522;28;20021;-78
2022/11/12 03:28:18;;;;;;;89.50;46.73;;;6.10;99.90;;;;;;10486456;28;20028;-79
2022/11/12 03:33:19;;;;;;;97.33;53.30;;;6.00;99.90;;;;;;10488693;28;20044;-80
2022/11/12 03:38:19;;;;;;;89.97;50.93;;;6.00;99.90;;;;;;10471370;28;20450;-79
2022/11/12 03:43:20;;;;;;;98.50;52.67;;;5.90;99.90;;;;;;10488293;28;20028;-80
2022/11/12 03:48:21;;;;;;;96.10;49.83;;;5.80;99.90;;;;;;10488611;28;20032;-79
2022/11/12 03:53:21;;;;;;;93.30;48.03;;;5.70;99.90;;;;;;10488976;28;20043;-79
2022/11/12 03:58:22;;;;;;;97.83;50.30;;;5.70;99.90;;;;;;10488618;28;20045;-78
2022/11/12 04:03:22;;;;;;;92.60;47.07;;;5.60;99.90;;;;;;10487207;28;20056;-79
2022/11/12 04:08:35;;;;;;;104.40;51.57;;;5.40;99.90;;;;;;10487309;28;20056;-78
2022/11/12 04:13:37;;;;;;;92.83;47.50;;;5.50;99.90;;;;;;10487529;28;20032;-78
2022/11/12 04:23:57;;;;;;;89.77;47.50;;;5.70;99.90;;;;;;10485564;28;20036;-81
2022/11/12 04:34:28;;;;;;;86.87;46.40;;;5.60;99.90;;;;;;10480519;28;20044;-78
2022/11/12 04:39:29;;;;;;;91.40;47.03;;;5.60;99.90;;;;;;10485828;28;20033;-78
2022/11/12 04:49:48;;;;;;;111.30;62.50;;;5.60;99.90;;;;;;10485431;28;20119;-78
2022/11/12 04:54:50;;;;;;;117.40;65.73;;;5.60;99.90;;;;;;10484895;28;20028;-78
2022/11/12 04:59:51;;;;;;;130.00;68.03;;;5.60;99.90;;;;;;10485304;28;20044;-80
2022/11/12 05:04:51;;;;;;;117.83;64.83;;;5.50;99.90;;;;;;10484914;28;20036;-79
2022/11/12 05:09:52;;;;;;;128.70;69.03;;;5.40;99.90;;;;;;10483809;28;20028;-79
2022/11/12 05:14:52;;;;;;;113.03;62.17;;;5.30;99.90;;;;;;10482880;28;20058;-79
2022/11/12 05:19:53;;;;;;;110.70;57.50;;;5.20;99.90;;;;;;10483472;28;20556;-79
2022/11/12 05:24:54;;;;;;;111.73;60.67;;;5.10;99.90;;;;;;10484315;28;20052;-81
2022/11/12 05:29:54;;;;;;;97.20;52.87;;;5.00;99.90;;;;;;10481046;28;20040;-80
2022/11/12 05:34:55;;;;;;;110.53;58.97;;;5.00;99.90;;;;;;10482530;28;20028;-80
2022/11/12 05:39:55;;;;;;;108.80;58.93;;;5.10;99.90;;;;;;10481568;28;20167;-78
2022/11/12 05:44:56;;;;;;;95.17;52.47;;;5.00;99.90;;;;;;10483628;28;20032;-79
2022/11/12 05:49:56;;;;;;;106.70;55.87;;;5.00;99.90;;;;;;10464294;28;20102;-80
2022/11/12 05:54:57;;;;;;;96.77;53.93;;;5.00;99.90;;;;;;10465173;28;20537;-79
2022/11/12 05:59:57;;;;;;;111.57;56.10;;;4.90;99.90;;;;;;10480963;28;20044;-78
2022/11/12 06:04:58;;;;;;;100.13;50.60;;;4.80;99.90;;;;;;10481270;28;20033;-79
2022/11/12 06:09:58;;;;;;;97.73;52.33;;;4.80;99.90;;;;;;10485006;28;20590;-78
2022/11/12 06:14:59;;;;;;;117.20;59.97;;;4.90;99.90;;;;;;10482480;28;20029;-79
2022/11/12 06:19:59;;;;;;;108.20;56.53;;;4.90;99.90;;;;;;10480887;28;20040;-77
2022/11/12 06:25:00;;;;;;;105.83;56.80;;;4.90;99.90;;;;;;10480460;28;20539;-77
2022/11/12 06:30:01;;;;;;;145.17;80.30;;;4.90;99.90;;;;;;10479196;28;20344;-78
2022/11/12 06:35:01;;;;;;;167.93;94.33;;;4.90;99.90;;;;;;10480259;28;20052;-78
2022/11/12 06:40:02;;;;;;;144.87;82.80;;;4.80;99.90;;;;;;10481497;28;20137;-78
2022/11/12 06:45:03;;;;;;;125.53;73.13;;;4.70;99.90;;;;;;10481902;28;20111;-78
2022/11/12 06:50:04;;;;;;;121.10;67.67;;;4.80;99.90;;;;;;10476039;28;20095;-78
2022/11/12 06:55:05;;;;;;;127.43;77.37;;;4.90;99.90;;;;;;10473342;28;20186;-78
2022/11/12 07:00:06;;;;;;;149.07;88.17;;;5.00;99.90;;;;;;10479230;28;20425;-78
2022/11/12 07:05:07;;;;;;;229.30;138.03;;;5.10;99.90;;;;;;10485834;28;20475;-78
2022/11/12 07:10:08;;;;;;;183.87;108.67;;;5.20;99.90;;;;;;10486857;28;20028;-79
2022/11/12 07:15:09;;;;;;;171.10;97.97;;;5.30;99.90;;;;;;10487522;28;20423;-79
2022/11/12 07:20:10;;;;;;;116.73;68.77;;;5.40;99.90;;;;;;10487850;28;20042;-78
2022/11/12 07:25:10;;;;;;;179.97;98.07;;;5.60;99.90;;;;;;10487554;28;20044;-79
2022/11/12 07:30:12;;;;;;;149.60;82.27;;;5.70;99.90;;;;;;10486648;28;20037;-77
2022/11/12 07:35:12;;;;;;;112.47;60.80;;;5.70;99.90;;;;;;10469431;28;20071;-77
2022/11/12 07:40:14;;;;;;;121.73;65.53;;;6.10;99.90;;;;;;10483444;28;20166;-78
2022/11/12 07:45:14;;;;;;;199.13;93.10;;;6.40;99.90;;;;;;10486308;28;20078;-79
2022/11/12 07:50:15;;;;;;;121.53;65.27;;;6.70;99.90;;;;;;10485502;28;20081;-78
2022/11/12 07:55:15;;;;;;;141.60;72.17;;;6.90;99.90;;;;;;10489844;28;20056;-79
2022/11/12 08:00:16;;;;;;;144.27;75.57;;;7.30;99.90;;;;;;10490148;28;20086;-78
2022/11/12 08:05:17;;;;;;;105.13;57.43;;;7.50;99.90;;;;;;10482112;28;20620;-80
2022/11/12 08:10:17;;;;;;;92.53;52.80;;;7.90;99.90;;;;;;10484210;28;20032;-78
2022/11/12 08:15:18;;;;;;;82.63;48.13;;;8.30;99.90;;;;;;10481532;28;20669;-80
2022/11/12 08:20:18;;;;;;;69.87;37.27;;;8.70;99.90;;;;;;10477052;28;20081;-78
2022/11/12 08:25:19;;;;;;;52.43;32.77;;;9.00;99.90;;;;;;10488408;28;20085;-79
2022/11/12 08:30:19;;;;;;;58.15;34.17;;;9.30;99.90;;;;;;10488808;28;20107;-80
2022/11/12 08:35:20;;;;;;;61.10;34.40;;;9.50;99.90;;;;;;10487351;28;20536;-79
2022/11/12 08:40:20;;;;;;;55.40;31.73;;;9.70;99.90;;;;;;10483999;28;20080;-80
2022/11/12 08:45:21;;;;;;;50.40;30.30;;;9.90;99.90;;;;;;10480704;28;20159;-81
2022/11/12 08:50:21;;;;;;;54.70;33.10;;;10.10;99.90;;;;;;10482404;28;20539;-79
2022/11/12 08:55:22;;;;;;;48.50;29.58;;;10.30;99.90;;;;;;10479778;28;20039;-79
2022/11/12 09:00:22;;;;;;;51.35;29.02;;;10.50;99.90;;;;;;10480519;28;20061;-80
2022/11/12 09:05:23;;;;;;;52.38;29.65;;;10.70;99.90;;;;;;10482440;28;20024;-80
2022/11/12 09:10:24;;;;;;;45.55;27.98;;;10.90;99.90;;;;;;10482570;28;20566;-81
2022/11/12 09:15:25;;;;;;;51.80;31.17;;;10.90;99.90;;;;;;10482510;28;20033;-81
2022/11/12 09:20:27;;;;;;;51.17;31.83;;;11.10;99.90;;;;;;10484633;28;20059;-81
2022/11/12 09:25:28;;;;;;;44.65;28.33;;;11.30;99.90;;;;;;10482081;28;20073;-81
2022/11/12 09:30:28;;;;;;;49.85;30.48;;;11.50;99.90;;;;;;10482519;28;20527;-79
2022/11/12 09:35:29;;;;;;;40.72;26.15;;;11.70;99.90;;;;;;10481805;28;20020;-79
2022/11/12 09:40:43;;;;;;;48.20;28.15;;;11.80;99.90;;;;;;10466986;28;20055;-79
2022/11/12 09:45:46;;;;;;;55.63;34.28;;;11.80;99.90;;;;;;10481647;28;20081;-79
2022/11/12 09:50:51;;;;;;;53.03;32.80;;;11.90;99.90;;;;;;10480440;28;20032;-79
2022/11/12 09:55:52;;;;;;;48.20;29.67;;;12.10;99.90;;;;;;10483286;28;20074;-78
2022/11/12 10:00:56;;;;;;;41.78;26.27;;;12.30;99.90;;;;;;10474742;28;20055;-78
2022/11/12 10:06:28;;;;;;;28.40;15.75;;;12.50;99.90;;;;;;10451443;28;20715;-79
2022/11/12 10:12:30;;;;;;;35.17;21.05;;;12.70;99.90;;;;;;10482883;28;20468;-79
2022/11/12 10:17:50;;;;;;;35.72;19.40;;;12.80;99.90;;;;;;10405133;28;20059;-81
2022/11/12 10:23:21;;;;;;;28.20;16.13;;;13.00;99.90;;;;;;10481611;28;20500;-80
2022/11/12 10:28:50;;;;;;;25.80;14.32;;;13.10;99.90;;;;;;10479438;28;20028;-79
2022/11/12 10:34:13;;;;;;;26.65;15.90;;;13.20;99.90;;;;;;10480737;28;20500;-80
2022/11/12 10:39:41;;;;;;;34.42;18.75;;;13.30;99.90;;;;;;10477015;28;20396;-80
2022/11/12 10:44:42;;;;;;;27.35;15.70;;;13.40;99.90;;;;;;10480685;28;20119;-80
2022/11/12 10:49:43;;;;;;;25.98;14.30;;;13.40;99.90;;;;;;10473372;28;20028;-80
2022/11/12 10:54:44;;;;;;;30.38;15.43;;;13.60;99.90;;;;;;10478158;28;20361;-82
2022/11/12 10:59:44;;;;;;;23.92;13.23;;;13.60;99.90;;;;;;10466627;28;20523;-80
2022/11/12 11:04:45;;;;;;;25.98;15.27;;;13.70;99.90;;;;;;10475792;28;20036;-82
2022/11/12 11:09:59;;;;;;;32.33;17.60;;;13.70;99.90;;;;;;10487768;28;20036;-81
2022/11/12 11:15:20;;;;;;;25.98;15.25;;;13.80;99.90;;;;;;10464359;28;20029;-82
2022/11/12 11:20:32;;;;;;;23.95;13.88;;;13.90;99.90;;;;;;10477674;28;20039;-79
2022/11/12 11:25:34;;;;;;;29.40;15.93;;;14.00;99.90;;;;;;10480495;28;20036;-82
2022/11/12 11:30:39;;;;;;;22.55;11.48;;;14.00;99.90;;;;;;10489825;28;20461;-80
2022/11/12 11:36:11;;;;;;;32.20;17.13;;;14.10;99.90;;;;;;10488164;28;20108;-81
2022/11/12 11:41:33;;;;;;;31.08;15.63;;;14.20;99.90;;;;;;10462131;28;20806;-81
2022/11/12 11:46:52;;;;;;;24.90;12.43;;;14.30;99.90;;;;;;10484485;28;20090;-82
2022/11/12 11:52:20;;;;;;;39.95;18.83;;;14.30;99.90;;;;;;10487777;28;20040;-83
2022/11/12 11:57:27;;;;;;;26.77;11.35;;;14.30;99.90;;;;;;10474556;28;20038;-81
2022/11/12 12:02:59;;;;;;;25.33;12.52;;;14.20;99.90;;;;;;10465158;28;20052;-81
2022/11/12 12:08:13;;;;;;;27.48;13.23;;;14.30;99.90;;;;;;10451720;28;20028;-82
2022/11/12 12:13:21;;;;;;;34.70;16.63;;;14.30;99.90;;;;;;10463737;28;20484;-80
2022/11/12 12:18:34;;;;;;;20.20;11.25;;;14.20;99.90;;;;;;10485216;28;20097;-84
2022/11/12 12:23:49;;;;;;;21.83;11.05;;;14.30;99.90;;;;;;10467449;28;20069;-81
2022/11/12 12:29:03;;;;;;;27.48;13.50;;;14.30;99.90;;;;;;10484224;28;20031;-80
2022/11/12 12:34:18;;;;;;;16.67;9.40;;;14.40;99.90;;;;;;10485165;28;20021;-79
2022/11/12 12:39:42;;;;;;;21.85;12.00;;;14.40;99.90;;;;;;10483445;28;20033;-79
2022/11/12 12:45:02;;;;;;;21.77;11.35;;;14.30;99.90;;;;;;10467034;28;20602;-79
2022/11/12 12:50:09;;;;;;;26.90;13.07;;;14.30;99.90;;;;;;10477694;28;20031;-77
2022/11/12 12:55:37;;;;;;;21.05;11.50;;;14.30;99.90;;;;;;10470283;28;20021;-79
2022/11/12 13:00:40;;;;;;;24.08;13.05;;;14.20;99.90;;;;;;10485153;28;20048;-78
2022/11/12 13:05:41;;;;;;;22.60;12.18;;;14.20;99.90;;;;;;10461561;28;20078;-80
2022/11/12 13:10:42;;;;;;;24.23;12.63;;;14.10;99.90;;;;;;10483618;28;20043;-79
2022/11/12 13:15:47;;;;;;;22.60;11.75;;;14.00;99.90;;;;;;10481168;28;20029;-79
2022/11/12 13:21:20;;;;;;;22.23;12.87;;;14.00;99.90;;;;;;10483569;28;20041;-80
2022/11/12 13:26:42;;;;;;;20.92;11.20;;;13.90;99.90;;;;;;10435023;28;20040;-78
2022/11/12 13:31:43;;;;;;;19.42;9.85;;;13.80;99.90;;;;;;10482733;28;20028;-80
2022/11/12 13:37:04;;;;;;;23.58;13.02;;;13.70;99.90;;;;;;10482550;28;20032;-78
2022/11/12 13:47:32;;;;;;;24.30;12.30;;;13.50;99.90;;;;;;10474161;28;20049;-78
2022/11/12 13:52:34;;;;;;;24.95;13.13;;;13.30;99.90;;;;;;10480047;28;20017;-78
2022/11/12 13:57:34;;;;;;;19.00;10.52;;;13.10;99.90;;;;;;10482682;28;20028;-79
2022/11/12 14:02:37;;;;;;;28.67;16.08;;;13.00;99.90;;;;;;10480682;28;20483;-78
2022/11/12 14:07:47;;;;;;;24.33;13.45;;;12.80;99.90;;;;;;10480703;28;20119;-79
2022/11/12 14:12:58;;;;;;;31.98;16.83;;;12.80;99.90;;;;;;10484318;28;20100;-80
2022/11/12 14:18:26;;;;;;;47.28;26.52;;;12.70;99.90;;;;;;10476746;28;20035;-79
2022/11/12 14:23:27;;;;;;;38.67;22.50;;;12.60;99.90;;;;;;10467704;28;20123;-77
2022/11/12 14:28:35;;;;;;;31.13;17.13;;;12.50;99.90;;;;;;10479301;28;20486;-79
2022/11/12 14:33:36;;;;;;;30.77;13.82;;;12.20;99.90;;;;;;10476923;28;20036;-79
2022/11/12 14:38:41;;;;;;;21.73;11.15;;;12.00;99.90;;;;;;10478130;28;20041;-80
2022/11/12 14:43:44;;;;;;;21.63;11.63;;;11.60;99.90;;;;;;10479048;28;20432;-78
2022/11/12 14:48:52;;;;;;;29.65;16.48;;;11.20;99.90;;;;;;10480044;28;20054;-79
2022/11/12 14:53:55;;;;;;;36.10;17.55;;;10.90;99.90;;;;;;10477178;28;20029;-79
2022/11/12 14:58:56;;;;;;;28.48;13.30;;;10.60;99.90;;;;;;10473606;28;20055;-78
2022/11/12 15:04:26;;;;;;;26.25;12.63;;;10.20;99.90;;;;;;10477990;28;20573;-78
2022/11/12 15:09:35;;;;;;;27.02;13.63;;;9.80;99.90;;;;;;10477736;28;20048;-79
2022/11/12 15:14:36;;;;;;;25.37;13.57;;;9.50;99.90;;;;;;10481308;28;20043;-79
2022/11/12 15:19:41;;;;;;;23.80;13.07;;;9.30;99.90;;;;;;10481577;28;20046;-79
2022/11/12 15:24:43;;;;;;;35.10;18.50;;;9.10;99.90;;;;;;10482122;28;20062;-79
2022/11/12 15:29:44;;;;;;;39.53;22.07;;;8.90;99.90;;;;;;10487717;28;20597;-79
2022/11/12 15:34:46;;;;;;;31.30;18.30;;;8.70;99.90;;;;;;10471245;28;20032;-79
2022/11/12 15:39:50;;;;;;;30.50;17.23;;;8.60;99.90;;;;;;10487772;28;20040;-79
2022/11/12 15:45:03;;;;;;;30.50;15.80;;;8.50;99.90;;;;;;10489942;28;20025;-79
2022/11/12 15:50:24;;;;;;;31.77;17.37;;;8.30;99.90;;;;;;10481127;28;20036;-79
2022/11/12 15:55:26;;;;;;;38.57;20.63;;;7.90;99.90;;;;;;10491533;28;20048;-79
2022/11/12 16:00:35;;;;;;;31.10;17.20;;;7.70;99.90;;;;;;10481581;28;20063;-78
2022/11/12 16:05:35;;;;;;;32.43;17.97;;;7.70;99.90;;;;;;10486162;28;20149;-79
2022/11/12 16:10:38;;;;;;;33.27;16.23;;;7.60;99.90;;;;;;10478410;28;20151;-79
2022/11/12 16:15:39;;;;;;;37.63;18.40;;;7.70;99.90;;;;;;10470069;28;20044;-78
2022/11/12 16:20:39;;;;;;;54.70;29.27;;;7.70;99.90;;;;;;10482287;28;20499;-80
2022/11/12 16:25:41;;;;;;;66.13;31.17;;;7.80;99.90;;;;;;10482712;28;20062;-80
2022/11/12 16:30:44;;;;;;;71.33;33.80;;;7.90;99.90;;;;;;10480696;28;20058;-78
2022/11/12 16:35:45;;;;;;;73.07;34.23;;;7.80;99.90;;;;;;10480528;28;20032;-79
2022/11/12 16:40:45;;;;;;;75.87;37.17;;;7.60;99.90;;;;;;10480437;28;20684;-78
2022/11/12 16:45:46;;;;;;;72.93;35.40;;;7.50;99.90;;;;;;10482070;28;20028;-78
2022/11/12 16:50:47;;;;;;;67.33;33.13;;;7.40;99.90;;;;;;10481627;28;20484;-79
2022/11/12 16:55:49;;;;;;;67.20;31.67;;;7.30;99.90;;;;;;10481254;28;20024;-79
2022/11/12 17:00:49;;;;;;;63.67;30.93;;;7.10;99.90;;;;;;10477165;28;20044;-78
2022/11/12 17:05:51;;;;;;;68.57;33.03;;;7.00;99.90;;;;;;10484909;28;20557;-78
2022/11/12 17:10:51;;;;;;;75.73;32.93;;;6.90;99.90;;;;;;10480536;28;20081;-79
2022/11/12 17:15:57;;;;;;;72.00;35.50;;;6.90;99.90;;;;;;10483930;28;20565;-78
2022/11/12 17:21:16;;;;;;;55.15;27.15;;;6.70;99.90;;;;;;10460662;28;20101;-79
2022/11/12 17:26:19;;;;;;;90.00;39.20;;;6.60;99.90;;;;;;10482004;28;20029;-79
2022/11/12 17:31:21;;;;;;;67.00;31.83;;;6.50;99.90;;;;;;10483017;28;20032;-79
2022/11/12 17:36:24;;;;;;;90.60;39.73;;;6.40;99.90;;;;;;10484360;28;20748;-79
2022/11/12 17:41:27;;;;;;;88.00;36.63;;;6.30;99.90;;;;;;10481743;28;20040;-79
2022/11/12 17:46:28;;;;;;;85.77;38.63;;;6.20;99.90;;;;;;10482910;28;20028;-79
2022/11/12 17:57:54;;;;;;;;;;;6.10;99.90;;;;;;10475136;28;20480;-78
2022/11/12 18:02:55;;;;;;;149.20;55.67;;;6.10;99.90;;;;;;10481082;28;19982;-80
2022/11/12 18:07:55;;;;;;;224.97;61.87;;;6.10;99.90;;;;;;10482849;28;20115;-79
2022/11/12 18:12:57;;;;;;;275.60;60.10;;;6.10;99.90;;;;;;10480631;28;20036;-79
2022/11/12 18:17:58;;;;;;;274.67;65.03;;;6.10;99.90;;;;;;10483463;28;20028;-79
2022/11/12 18:22:59;;;;;;;312.90;71.73;;;6.00;99.90;;;;;;10482557;28;20040;-79
2022/11/12 18:27:59;;;;;;;324.40;78.47;;;6.10;99.90;;;;;;10478811;28;20036;-78
2022/11/12 18:33:00;;;;;;;338.77;67.67;;;6.10;99.90;;;;;;10479176;28;20028;-78
2022/11/12 18:38:00;;;;;;;350.83;73.97;;;6.10;99.90;;;;;;10480998;28;20033;-79
2022/11/12 18:43:01;;;;;;;346.87;72.27;;;6.20;99.90;;;;;;10480224;28;20155;-79
2022/11/12 18:48:03;;;;;;;209.83;57.97;;;6.30;99.90;;;;;;10481836;28;20824;-79
2022/11/12 18:53:03;;;;;;;309.60;84.60;;;6.30;99.90;;;;;;10480869;28;20031;-80
2022/11/12 18:58:04;;;;;;;208.67;63.13;;;6.50;99.90;;;;;;10483815;28;20499;-78
2022/11/12 19:03:04;;;;;;;195.67;57.97;;;6.60;99.90;;;;;;10487931;28;20056;-78
2022/11/12 19:08:05;;;;;;;171.77;50.70;;;6.70;99.90;;;;;;10489084;28;20464;-80
2022/11/12 19:13:06;;;;;;;148.10;48.63;;;6.80;99.90;;;;;;10488808;28;20025;-79
2022/11/12 19:18:06;;;;;;;189.87;90.43;;;6.90;99.90;;;;;;10488637;28;20032;-80
2022/11/12 19:23:07;;;;;;;131.87;53.23;;;7.00;99.90;;;;;;10487798;28;20137;-79
2022/11/12 19:28:07;;;;;;;121.50;49.87;;;7.10;99.90;;;;;;10489075;28;20112;-80
2022/11/12 19:33:08;;;;;;;138.87;55.43;;;7.30;99.90;;;;;;10492638;28;20179;-81
2022/11/12 19:38:09;;;;;;;198.53;90.93;;;7.30;99.90;;;;;;10465355;28;20396;-79
2022/11/12 19:43:09;;;;;;;181.00;81.00;;;7.40;99.90;;;;;;10487364;28;20028;-80
2022/11/12 19:48:10;;;;;;;133.67;55.57;;;7.50;99.90;;;;;;10487865;28;20024;-81
2022/11/12 19:53:11;;;;;;;124.33;51.00;;;7.50;99.90;;;;;;10486276;28;20035;-81
2022/11/12 19:58:11;;;;;;;116.43;52.97;;;7.50;99.90;;;;;;10487831;28;20040;-80
2022/11/12 20:03:12;;;;;;;98.83;40.90;;;7.60;99.90;;;;;;10485578;28;20049;-80
2022/11/12 20:08:12;;;;;;;103.93;45.87;;;7.60;99.90;;;;;;10485385;28;20040;-80
2022/11/12 20:13:13;;;;;;;112.60;50.43;;;7.70;99.90;;;;;;10484534;28;20069;-79
2022/11/12 20:18:14;;;;;;;154.90;70.60;;;7.80;99.90;;;;;;10483951;28;20048;-79
2022/11/12 20:23:15;;;;;;;108.60;44.03;;;7.80;99.90;;;;;;10475968;28;20120;-80
2022/11/12 20:28:15;;;;;;;96.73;42.73;;;7.80;99.90;;;;;;10478970;28;20460;-80
2022/11/12 20:33:16;;;;;;;108.27;43.63;;;7.80;99.90;;;;;;10470759;28;20028;-78
2022/11/12 20:38:16;;;;;;;123.90;56.13;;;7.80;99.90;;;;;;10491392;22;20061;-80
2022/11/12 20:43:17;;;;;;;122.17;55.53;;;7.80;99.90;;;;;;10443674;28;20020;-79
2022/11/12 20:48:19;;;;;;;120.73;48.30;;;7.90;99.90;;;;;;10444128;28;20032;-79
2022/11/12 20:53:19;;;;;;;124.37;50.77;;;7.80;99.90;;;;;;10440159;28;20611;-80
2022/11/12 20:58:20;;;;;;;124.53;50.70;;;7.80;99.90;;;;;;10443070;28;20036;-79
2022/11/12 21:03:20;;;;;;;111.60;50.93;;;7.90;99.90;;;;;;10431269;28;20033;-79
2022/11/12 21:08:21;;;;;;;133.67;57.90;;;7.90;99.90;;;;;;10439485;28;20136;-79
2022/11/12 21:13:22;;;;;;;97.33;43.47;;;8.00;99.90;;;;;;10444037;28;20025;-79
2022/11/12 21:18:27;;;;;;;91.40;40.10;;;8.00;99.90;;;;;;10442553;28;20038;-79
2022/11/12 21:23:35;;;;;;;94.37;42.43;;;8.00;99.90;;;;;;10442899;28;20033;-79
2022/11/12 21:28:37;;;;;;;93.63;40.27;;;8.00;99.90;;;;;;10443419;28;20040;-79
2022/11/12 21:33:38;;;;;;;96.10;36.23;;;8.00;99.90;;;;;;10425625;28;20567;-80
2022/11/12 21:38:38;;;;;;;94.40;35.40;;;8.00;99.90;;;;;;10403786;28;20157;-79
2022/11/12 21:43:44;;;;;;;85.33;33.37;;;8.00;99.90;;;;;;10404362;28;20029;-79
2022/11/12 21:48:45;;;;;;;88.53;35.97;;;8.00;99.90;;;;;;10403229;28;20055;-80
2022/11/12 21:53:46;;;;;;;84.60;33.63;;;8.00;99.90;;;;;;10402572;28;20041;-80
2022/11/12 21:58:47;;;;;;;85.03;33.87;;;8.00;99.90;;;;;;10415296;28;20029;-80
2022/11/12 22:03:48;;;;;;;93.10;35.73;;;7.90;99.90;;;;;;10442791;28;20044;-79
2022/11/12 22:08:54;;;;;;;96.30;37.57;;;7.80;99.90;;;;;;10441745;28;20044;-80
2022/11/12 22:13:54;;;;;;;107.73;40.23;;;7.80;99.90;;;;;;10443138;28;20713;-81
2022/11/12 22:18:56;;;;;;;98.03;38.50;;;7.80;99.90;;;;;;10441741;28;20299;-79
2022/11/12 22:23:58;;;;;;;113.37;40.63;;;7.70;99.90;;;;;;10442181;28;20129;-79
2022/11/12 22:28:59;;;;;;;106.83;41.17;;;7.70;99.90;;;;;;10423883;28;20037;-79
2022/11/12 22:34:00;;;;;;;104.27;39.87;;;7.70;99.90;;;;;;10448094;28;20810;-80
2022/11/12 22:39:03;;;;;;;111.17;40.10;;;7.70;99.90;;;;;;10449814;28;20048;-79
2022/11/12 22:44:04;;;;;;;148.30;46.73;;;7.70;99.90;;;;;;10450291;28;20460;-79
2022/11/12 22:49:04;;;;;;;117.83;42.43;;;7.70;99.90;;;;;;10450449;28;20086;-79
2022/11/12 22:54:08;;;;;;;116.07;42.30;;;7.60;99.90;;;;;;10449472;28;20040;-79
2022/11/12 22:59:09;;;;;;;116.67;41.33;;;7.60;99.90;;;;;;10450433;28;20048;-80
2022/11/12 23:04:10;;;;;;;114.70;39.80;;;7.60;99.90;;;;;;10450594;28;20025;-79
2022/11/12 23:09:15;;;;;;;93.70;34.93;;;7.50;99.90;;;;;;10449343;28;20036;-79
2022/11/12 23:14:15;;;;;;;87.97;32.97;;;7.50;99.90;;;;;;10449921;28;20032;-79
2022/11/12 23:19:16;;;;;;;101.37;37.13;;;7.50;99.90;;;;;;10448859;28;20041;-80
2022/11/12 23:24:16;;;;;;;106.30;38.87;;;7.50;99.90;;;;;;10449096;28;20110;-79
2022/11/12 23:29:17;;;;;;;130.27;45.47;;;7.50;99.90;;;;;;10449023;28;20026;-79
2022/11/12 23:34:17;;;;;;;127.03;45.97;;;7.50;99.90;;;;;;10448036;28;20115;-80
2022/11/12 23:39:18;;;;;;;123.77;44.20;;;7.50;99.90;;;;;;10448067;28;20060;-80
2022/11/12 23:44:18;;;;;;;130.37;45.37;;;7.50;99.90;;;;;;10446898;28;20056;-81
2022/11/12 23:49:19;;;;;;;121.10;46.60;;;7.40;99.90;;;;;;10447329;28;20111;-80
2022/11/12 23:54:19;;;;;;;105.80;43.50;;;7.40;99.90;;;;;;10447184;28;20100;-80
2022/11/12 23:59:20;;;;;;;112.60;46.33;;;7.40;99.90;;;;;;10447305;28;20040;-79
